This is the latest recevied weather packets stored in our database for station/object KC1ELF. If no packets are shown the sender has not sent any weather packets the latest 1 day(s).
| Time | Temp. | Humidity | Pressure | Rain* | Wind** | Luminosity | Snow |
|---|---|---|---|---|---|---|---|
| 1778040095 | 17.78° C | 62% | 1009.5 hPa | 0 mm | - | - | - |
| 1778039495 | 17.78° C | 61% | 1009.5 hPa | 0 mm | - | - | - |
| 1778038895 | 18.33° C | 60% | 1009.4 hPa | 0 mm | - | - | - |
| 1778038296 | 18.33° C | 60% | 1009.5 hPa | 0 mm | - | - | - |
| 1778037695 | 18.33° C | 59% | 1009.5 hPa | 0 mm | - | - | - |
| 1778037095 | 18.33° C | 59% | 1009.4 hPa | 0 mm | - | - | - |
| 1778036436 | 18.89° C | 58% | 1009.3 hPa | 0 mm | - | - | - |
| 1778035295 | 18.89° C | 57% | 1009.4 hPa | 0 mm | - | - | - |
| 1778034695 | 19.44° C | 57% | 1009.5 hPa | 0 mm | - | - | - |
| 1778034095 | 19.44° C | 56% | 1009.6 hPa | 0 mm | - | - | - |
| 1778033495 | 20° C | 55% | 1009.5 hPa | 0 mm | - | - | - |
| 1778032296 | 20.56° C | 53% | 1009.4 hPa | 0 mm | - | - | - |
| 1778031696 | 20.56° C | 53% | 1009.3 hPa | 0 mm | - | - | - |
| 1778031095 | 21.11° C | 52% | 1009.1 hPa | 0 mm | - | - | - |
| 1778030495 | 21.11° C | 51% | 1009.1 hPa | 0 mm | - | - | - |
| 1778029895 | 21.11° C | 50% | 1008.5 hPa | 0 mm | - | - | - |
| 1778028695 | 21.67° C | 48% | 1008.2 hPa | 0 mm | - | - | - |
| 1778026295 | 22.78° C | 45% | 1007.1 hPa | 0 mm | - | - | - |
| 1778024495 | 23.33° C | 45% | 1006.7 hPa | 0 mm | - | - | - |
| 1778022696 | 24.44° C | 41% | 1006.3 hPa | 0 mm | - | - | - |
| 1778022096 | 25° C | 41% | 1006.1 hPa | 0 mm | - | - | - |
| 1778019096 | 26.11° C | 38% | 1005.1 hPa | 0 mm | - | - | - |
| 1778017896 | 26.67° C | 37% | 1005.1 hPa | 0 mm | - | - | - |
| 1778017297 | 27.22° C | 37% | 1005 hPa | 0 mm | - | - | - |
| 1778016096 | 27.78° C | 36% | 1004.8 hPa | 0 mm | - | - | - |
* Rain latest hour (hover to see other rain measurements)
** Current wind speed in m/s (hover to see current wind gust speed)